Azara, Argentina
Current Conditions -  °F | °C
As of 12:00 PM on Monday 22 Dec 2014 (Local Time) from SARP Reporting Station
Clear Clear  
Wind Chill: 77°   Ceiling: Unl
Heat Index: 78°   Visibility: 6mi
Dew Point: 54°   Wind: 14mph
Humidity: 44%   Direction: 160°SSE
Pressure: 29.97"   Gusts: NA
Location:  28.07°S, 55.68°W
Report Text: SARP 221500Z 16012KT CAVOK 25/12 Q1015
Loading
Personal Weather Stations






























Interactive Weather Map New forecast layout! Learn more

10-Day Weather Forecast

Advertisements
Track Severe Weather on mobile